sensor_id;sensor_type;location;lat;lon;timestamp;pressure;altitude;pressure_sealevel;temperature;humidity
37648;BME280;23490;53.656;10.076;2023-04-29T00:01:04;99137.16;;;-145.95;100.00
37648;BME280;23490;53.656;10.076;2023-04-29T00:03:29;99141.28;;;-145.95;100.00
37648;BME280;23490;53.656;10.076;2023-04-29T00:05:58;99137.16;;;-145.95;100.00
37648;BME280;23490;53.656;10.076;2023-04-29T00:08:24;99114.44;;;-145.95;100.00
37648;BME280;23490;53.656;10.076;2023-04-29T00:10:49;99120.63;;;-145.95;100.00
37648;BME280;23490;53.656;10.076;2023-04-29T00:13:15;99139.22;;;-145.95;100.00
37648;BME280;23490;53.656;10.076;2023-04-29T00:15:41;99161.94;;;-145.95;100.00
37648;BME280;23490;53.656;10.076;2023-04-29T00:18:06;99128.88;;;-145.95;100.00
37648;BME280;23490;53.656;10.076;2023-04-29T00:20:31;99124.75;;;-145.95;100.00
37648;BME280;23490;53.656;10.076;2023-04-29T00:22:57;99166.06;;;-145.95;100.00
37648;BME280;23490;53.656;10.076;2023-04-29T00:25:23;99137.16;;;-145.95;100.00
37648;BME280;23490;53.656;10.076;2023-04-29T00:27:48;99161.94;;;-145.95;100.00
37648;BME280;23490;53.656;10.076;2023-04-29T00:30:13;99112.38;;;-145.95;100.00
37648;BME280;23490;53.656;10.076;2023-04-29T00:32:39;99110.31;;;-145.95;100.00
37648;BME280;23490;53.656;10.076;2023-04-29T00:35:05;99145.41;;;-145.95;100.00
37648;BME280;23490;53.656;10.076;2023-04-29T00:37:31;99157.81;;;-145.95;100.00
37648;BME280;23490;53.656;10.076;2023-04-29T00:39:57;99170.19;;;-145.95;100.00
37648;BME280;23490;53.656;10.076;2023-04-29T00:42:24;99133.03;;;-145.95;100.00
37648;BME280;23490;53.656;10.076;2023-04-29T00:44:50;99166.06;;;-145.95;100.00
37648;BME280;23490;53.656;10.076;2023-04-29T00:47:15;99151.59;;;-145.95;100.00
37648;BME280;23490;53.656;10.076;2023-04-29T00:49:43;99178.44;;;-145.95;100.00
37648;BME280;23490;53.656;10.076;2023-04-29T00:52:11;99170.19;;;-145.95;100.00
37648;BME280;23490;53.656;10.076;2023-04-29T00:54:38;99180.50;;;-145.95;100.00
37648;BME280;23490;53.656;10.076;2023-04-29T00:57:03;99116.50;;;-145.95;100.00
37648;BME280;23490;53.656;10.076;2023-04-29T00:59:31;99176.38;;;-145.95;100.00
37648;BME280;23490;53.656;10.076;2023-04-29T01:02:00;99190.84;;;-145.95;100.00
37648;BME280;23490;53.656;10.076;2023-04-29T01:04:27;99172.25;;;-145.95;100.00
37648;BME280;23490;53.656;10.076;2023-04-29T01:07:06;99161.94;;;-145.95;100.00
37648;BME280;23490;53.656;10.076;2023-04-29T01:12:32;99190.84;;;-145.95;100.00
37648;BME280;23490;53.656;10.076;2023-04-29T01:15:15;99170.19;;;-145.95;100.00
37648;BME280;23490;53.656;10.076;2023-04-29T01:17:54;99149.53;;;-145.95;100.00
37648;BME280;23490;53.656;10.076;2023-04-29T01:20:21;99137.16;;;-145.95;100.00
37648;BME280;23490;53.656;10.076;2023-04-29T01:22:47;99153.66;;;-145.95;100.00
37648;BME280;23490;53.656;10.076;2023-04-29T01:25:13;99174.31;;;-145.95;100.00
37648;BME280;23490;53.656;10.076;2023-04-29T01:30:44;99153.66;;;-145.95;100.00
37648;BME280;23490;53.656;10.076;2023-04-29T01:33:28;99116.50;;;-145.95;100.00
37648;BME280;23490;53.656;10.076;2023-04-29T01:36:32;99141.28;;;-145.95;100.00
37648;BME280;23490;53.656;10.076;2023-04-29T01:39:22;99141.28;;;-145.95;100.00
37648;BME280;23490;53.656;10.076;2023-04-29T01:42:25;99174.31;;;-145.95;100.00
37648;BME280;23490;53.656;10.076;2023-04-29T01:44:56;99192.91;;;-145.95;100.00
37648;BME280;23490;53.656;10.076;2023-04-29T01:47:26;99166.06;;;-145.95;100.00
37648;BME280;23490;53.656;10.076;2023-04-29T01:49:51;99164.00;;;-145.95;100.00
37648;BME280;23490;53.656;10.076;2023-04-29T01:52:16;99180.50;;;-145.95;100.00
37648;BME280;23490;53.656;10.076;2023-04-29T01:54:42;99194.97;;;-145.95;100.00
37648;BME280;23490;53.656;10.076;2023-04-29T01:57:08;99161.94;;;-145.95;100.00
37648;BME280;23490;53.656;10.076;2023-04-29T01:59:33;99199.09;;;-145.95;100.00
37648;BME280;23490;53.656;10.076;2023-04-29T02:01:59;99186.72;;;-145.95;100.00
37648;BME280;23490;53.656;10.076;2023-04-29T02:04:24;99153.66;;;-145.95;100.00
37648;BME280;23490;53.656;10.076;2023-04-29T02:06:50;99190.84;;;-145.95;100.00
37648;BME280;23490;53.656;10.076;2023-04-29T02:09:17;99141.28;;;-145.95;100.00
37648;BME280;23490;53.656;10.076;2023-04-29T02:11:43;99192.91;;;-145.95;100.00
37648;BME280;23490;53.656;10.076;2023-04-29T02:14:08;99157.81;;;-145.95;100.00
37648;BME280;23490;53.656;10.076;2023-04-29T02:16:36;99149.53;;;-145.95;100.00
37648;BME280;23490;53.656;10.076;2023-04-29T02:19:02;99164.00;;;-145.95;100.00
37648;BME280;23490;53.656;10.076;2023-04-29T02:21:27;99153.66;;;-145.95;100.00
37648;BME280;23490;53.656;10.076;2023-04-29T02:23:56;99223.88;;;-145.95;100.00
37648;BME280;23490;53.656;10.076;2023-04-29T02:26:28;99161.94;;;-145.95;100.00
37648;BME280;23490;53.656;10.076;2023-04-29T02:28:54;99161.94;;;-145.95;100.00
37648;BME280;23490;53.656;10.076;2023-04-29T02:31:21;99199.09;;;-145.95;100.00
37648;BME280;23490;53.656;10.076;2023-04-29T02:33:46;99203.22;;;-145.95;100.00
37648;BME280;23490;53.656;10.076;2023-04-29T02:36:12;99215.63;;;-145.95;100.00
37648;BME280;23490;53.656;10.076;2023-04-29T02:38:39;99174.31;;;-145.95;100.00
37648;BME280;23490;53.656;10.076;2023-04-29T02:41:05;99176.38;;;-145.95;100.00
37648;BME280;23490;53.656;10.076;2023-04-29T02:43:34;99174.31;;;-145.95;100.00
37648;BME280;23490;53.656;10.076;2023-04-29T02:45:59;99186.72;;;-145.95;100.00
37648;BME280;23490;53.656;10.076;2023-04-29T02:48:24;99155.72;;;-145.95;100.00
37648;BME280;23490;53.656;10.076;2023-04-29T02:50:50;99219.75;;;-145.95;100.00
37648;BME280;23490;53.656;10.076;2023-04-29T02:53:17;99157.81;;;-145.95;100.00
37648;BME280;23490;53.656;10.076;2023-04-29T02:55:44;99166.06;;;-145.95;100.00
37648;BME280;23490;53.656;10.076;2023-04-29T02:58:09;99194.97;;;-145.95;100.00
37648;BME280;23490;53.656;10.076;2023-04-29T03:00:34;99186.72;;;-145.95;100.00
37648;BME280;23490;53.656;10.076;2023-04-29T03:03:00;99166.06;;;-145.95;100.00
37648;BME280;23490;53.656;10.076;2023-04-29T03:05:26;99203.22;;;-145.95;100.00
37648;BME280;23490;53.656;10.076;2023-04-29T03:07:52;99194.97;;;-145.95;100.00
37648;BME280;23490;53.656;10.076;2023-04-29T03:10:18;99170.19;;;-145.95;100.00
37648;BME280;23490;53.656;10.076;2023-04-29T03:12:43;99197.03;;;-145.95;100.00
37648;BME280;23490;53.656;10.076;2023-04-29T03:15:09;99211.50;;;-145.95;100.00
37648;BME280;23490;53.656;10.076;2023-04-29T03:17:37;99205.28;;;-145.95;100.00
37648;BME280;23490;53.656;10.076;2023-04-29T03:20:07;99194.97;;;-145.95;100.00
37648;BME280;23490;53.656;10.076;2023-04-29T03:22:34;99211.50;;;-145.95;100.00
37648;BME280;23490;53.656;10.076;2023-04-29T03:25:00;99199.09;;;-145.95;100.00
37648;BME280;23490;53.656;10.076;2023-04-29T03:27:25;99215.63;;;-145.95;100.00
37648;BME280;23490;53.656;10.076;2023-04-29T03:29:52;99209.44;;;-145.95;100.00
37648;BME280;23490;53.656;10.076;2023-04-29T03:32:19;99219.75;;;-145.95;100.00
37648;BME280;23490;53.656;10.076;2023-04-29T03:34:45;99194.97;;;-145.95;100.00
37648;BME280;23490;53.656;10.076;2023-04-29T03:37:10;99211.50;;;-145.95;100.00
37648;BME280;23490;53.656;10.076;2023-04-29T03:39:35;99197.03;;;-145.95;100.00
37648;BME280;23490;53.656;10.076;2023-04-29T03:42:01;99211.50;;;-145.95;100.00
37648;BME280;23490;53.656;10.076;2023-04-29T03:44:28;99213.56;;;-145.95;100.00
37648;BME280;23490;53.656;10.076;2023-04-29T03:46:53;99277.56;;;-145.95;100.00
37648;BME280;23490;53.656;10.076;2023-04-29T03:49:19;99203.22;;;-145.95;100.00
37648;BME280;23490;53.656;10.076;2023-04-29T03:51:44;99215.63;;;-145.95;100.00
37648;BME280;23490;53.656;10.076;2023-04-29T03:54:11;99242.47;;;-145.95;100.00
37648;BME280;23490;53.656;10.076;2023-04-29T03:56:37;99219.75;;;-145.95;100.00
37648;BME280;23490;53.656;10.076;2023-04-29T03:59:03;99211.50;;;-145.95;100.00
37648;BME280;23490;53.656;10.076;2023-04-29T04:01:29;99207.38;;;-145.95;100.00
37648;BME280;23490;53.656;10.076;2023-04-29T04:03:55;99199.09;;;-145.95;100.00
37648;BME280;23490;53.656;10.076;2023-04-29T04:06:20;99223.88;;;-145.95;100.00
37648;BME280;23490;53.656;10.076;2023-04-29T04:08:46;99207.38;;;-145.95;100.00
37648;BME280;23490;53.656;10.076;2023-04-29T04:11:11;99225.94;;;-145.95;100.00
37648;BME280;23490;53.656;10.076;2023-04-29T04:13:42;99221.81;;;-145.95;100.00
37648;BME280;23490;53.656;10.076;2023-04-29T04:16:08;99178.44;;;-145.95;100.00
37648;BME280;23490;53.656;10.076;2023-04-29T04:18:36;99209.44;;;-145.95;100.00
37648;BME280;23490;53.656;10.076;2023-04-29T04:21:08;99215.63;;;-145.95;100.00
37648;BME280;23490;53.656;10.076;2023-04-29T04:23:35;99199.09;;;-145.95;100.00
37648;BME280;23490;53.656;10.076;2023-04-29T04:26:02;99217.69;;;-145.95;100.00
37648;BME280;23490;53.656;10.076;2023-04-29T04:28:28;99232.16;;;-145.95;100.00
37648;BME280;23490;53.656;10.076;2023-04-29T04:30:54;99211.50;;;-145.95;100.00
37648;BME280;23490;53.656;10.076;2023-04-29T04:33:20;99215.63;;;-145.95;100.00
37648;BME280;23490;53.656;10.076;2023-04-29T04:35:45;99203.22;;;-145.95;100.00
37648;BME280;23490;53.656;10.076;2023-04-29T04:38:11;99228.00;;;-145.95;100.00
37648;BME280;23490;53.656;10.076;2023-04-29T04:40:40;99190.84;;;-145.95;100.00
37648;BME280;23490;53.656;10.076;2023-04-29T04:43:05;99213.56;;;-145.95;100.00
37648;BME280;23490;53.656;10.076;2023-04-29T04:45:30;99192.91;;;-145.95;100.00
37648;BME280;23490;53.656;10.076;2023-04-29T04:47:56;99228.00;;;-145.95;100.00
37648;BME280;23490;53.656;10.076;2023-04-29T04:50:21;99213.56;;;-145.95;100.00
37648;BME280;23490;53.656;10.076;2023-04-29T04:52:46;99240.41;;;-145.95;100.00
37648;BME280;23490;53.656;10.076;2023-04-29T04:55:12;99228.00;;;-145.95;100.00
37648;BME280;23490;53.656;10.076;2023-04-29T04:57:37;99244.53;;;-145.95;100.00
37648;BME280;23490;53.656;10.076;2023-04-29T05:00:05;99230.06;;;-145.95;100.00
37648;BME280;23490;53.656;10.076;2023-04-29T05:02:32;99259.00;;;-145.95;100.00
37648;BME280;23490;53.656;10.076;2023-04-29T05:04:57;99228.00;;;-145.95;100.00
37648;BME280;23490;53.656;10.076;2023-04-29T05:07:23;99248.66;;;-145.95;100.00
37648;BME280;23490;53.656;10.076;2023-04-29T05:09:48;99236.28;;;-145.95;100.00
37648;BME280;23490;53.656;10.076;2023-04-29T05:12:13;99194.97;;;-145.95;100.00
37648;BME280;23490;53.656;10.076;2023-04-29T05:14:39;99240.41;;;-145.95;100.00
37648;BME280;23490;53.656;10.076;2023-04-29T05:17:06;99219.75;;;-145.95;100.00
37648;BME280;23490;53.656;10.076;2023-04-29T05:19:34;99219.75;;;-145.95;100.00
37648;BME280;23490;53.656;10.076;2023-04-29T05:21:59;99203.22;;;-145.95;100.00
37648;BME280;23490;53.656;10.076;2023-04-29T05:24:25;99207.38;;;-145.95;100.00
37648;BME280;23490;53.656;10.076;2023-04-29T05:26:51;99228.00;;;-145.95;100.00
37648;BME280;23490;53.656;10.076;2023-04-29T05:29:18;99215.63;;;-145.95;100.00
37648;BME280;23490;53.656;10.076;2023-04-29T05:31:43;99236.28;;;-145.95;100.00
37648;BME280;23490;53.656;10.076;2023-04-29T05:34:09;99219.75;;;-145.95;100.00
37648;BME280;23490;53.656;10.076;2023-04-29T05:36:34;99219.75;;;-145.95;100.00
37648;BME280;23490;53.656;10.076;2023-04-29T05:39:00;99190.84;;;-145.95;100.00
37648;BME280;23490;53.656;10.076;2023-04-29T05:41:25;99234.22;;;-145.95;100.00
37648;BME280;23490;53.656;10.076;2023-04-29T05:43:51;99236.28;;;-145.95;100.00
37648;BME280;23490;53.656;10.076;2023-04-29T05:46:16;99211.50;;;-145.95;100.00
37648;BME280;23490;53.656;10.076;2023-04-29T05:48:43;99192.91;;;-145.95;100.00
37648;BME280;23490;53.656;10.076;2023-04-29T05:51:09;99190.84;;;-145.95;100.00
37648;BME280;23490;53.656;10.076;2023-04-29T05:53:35;99147.47;;;-145.95;100.00
37648;BME280;23490;53.656;10.076;2023-04-29T05:56:02;99166.06;;;-145.95;100.00
37648;BME280;23490;53.656;10.076;2023-04-29T05:58:33;99145.41;;;-145.95;100.00
37648;BME280;23490;53.656;10.076;2023-04-29T06:00:59;99174.31;;;-145.95;100.00
37648;BME280;23490;53.656;10.076;2023-04-29T06:03:24;99145.41;;;-145.95;100.00
37648;BME280;23490;53.656;10.076;2023-04-29T06:05:49;99166.06;;;-145.95;100.00
37648;BME280;23490;53.656;10.076;2023-04-29T06:08:15;99110.31;;;-145.95;100.00
37648;BME280;23490;53.656;10.076;2023-04-29T06:10:41;99102.03;;;-145.95;100.00
37648;BME280;23490;53.656;10.076;2023-04-29T06:13:07;99083.47;;;-145.95;100.00
37648;BME280;23490;53.656;10.076;2023-04-29T06:15:32;99042.16;;;-145.95;100.00
37648;BME280;23490;53.656;10.076;2023-04-29T06:17:58;99056.63;;;-145.95;100.00
37648;BME280;23490;53.656;10.076;2023-04-29T06:20:23;99021.50;;;-145.95;100.00
37648;BME280;23490;53.656;10.076;2023-04-29T06:22:49;98996.72;;;-145.95;99.93
37648;BME280;23490;53.656;10.076;2023-04-29T06:25:14;98936.84;;;-145.95;98.87
37648;BME280;23490;53.656;10.076;2023-04-29T06:27:40;98990.53;;;-145.95;99.65
37648;BME280;23490;53.656;10.076;2023-04-29T06:30:06;98955.44;;;-145.95;96.47
37648;BME280;23490;53.656;10.076;2023-04-29T06:32:31;98938.91;;;-145.95;96.87
37648;BME280;23490;53.656;10.076;2023-04-29T06:34:57;98936.84;;;-145.95;94.66
37648;BME280;23490;53.656;10.076;2023-04-29T06:37:23;98988.47;;;-145.95;97.39
37648;BME280;23490;53.656;10.076;2023-04-29T06:39:49;98943.03;;;-145.95;96.24
37648;BME280;23490;53.656;10.076;2023-04-29T06:42:16;98992.59;;;-145.95;95.61
37648;BME280;23490;53.656;10.076;2023-04-29T06:44:41;98940.97;;;-145.95;94.99
37648;BME280;23490;53.656;10.076;2023-04-29T06:47:07;98990.53;;;-145.95;92.94
37648;BME280;23490;53.656;10.076;2023-04-29T06:49:33;98967.81;;;-145.95;92.24
37648;BME280;23490;53.656;10.076;2023-04-29T06:51:59;98889.34;;;-145.95;90.95
37648;BME280;23490;53.656;10.076;2023-04-29T06:54:37;98955.44;;;-145.95;91.07
37648;BME280;23490;53.656;10.076;2023-04-29T06:57:33;98926.53;;;-145.95;89.82
37648;BME280;23490;53.656;10.076;2023-04-29T06:59:58;98893.47;;;-145.95;87.92
37648;BME280;23490;53.656;10.076;2023-04-29T07:02:24;98868.72;;;-145.95;88.36
37648;BME280;23490;53.656;10.076;2023-04-29T07:04:49;98846.00;;;-145.95;86.61
37648;BME280;23490;53.656;10.076;2023-04-29T07:07:15;98831.53;;;-145.95;86.13
37648;BME280;23490;53.656;10.076;2023-04-29T07:09:41;98901.75;;;-145.95;85.05
37648;BME280;23490;53.656;10.076;2023-04-29T07:12:07;98835.66;;;-145.95;85.34
37648;BME280;23490;53.656;10.076;2023-04-29T07:14:32;98843.94;;;-145.95;82.81
37648;BME280;23490;53.656;10.076;2023-04-29T07:16:58;98815.03;;;-145.95;83.28
37648;BME280;23490;53.656;10.076;2023-04-29T07:19:24;98815.03;;;-145.95;80.80
37648;BME280;23490;53.656;10.076;2023-04-29T07:21:49;98835.66;;;-145.95;77.66
37648;BME280;23490;53.656;10.076;2023-04-29T07:24:15;98800.56;;;-145.95;78.36
37648;BME280;23490;53.656;10.076;2023-04-29T07:26:42;98781.97;;;-145.95;78.84
37648;BME280;23490;53.656;10.076;2023-04-29T07:29:08;98765.47;;;-145.95;78.19
37648;BME280;23490;53.656;10.076;2023-04-29T07:31:35;98757.19;;;-145.95;76.75
37648;BME280;23490;53.656;10.076;2023-04-29T07:34:00;98742.75;;;-145.95;75.86
37648;BME280;23490;53.656;10.076;2023-04-29T07:36:26;98740.69;;;-145.95;78.12
37648;BME280;23490;53.656;10.076;2023-04-29T07:39:22;98697.31;;;-145.95;74.71
37648;BME280;23490;53.656;10.076;2023-04-29T07:41:58;98732.44;;;-145.95;73.49
37648;BME280;23490;53.656;10.076;2023-04-29T07:44:25;98744.81;;;-145.95;75.57
37648;BME280;23490;53.656;10.076;2023-04-29T07:46:50;98736.56;;;-145.95;75.26
37648;BME280;23490;53.656;10.076;2023-04-29T07:49:16;98699.38;;;-145.95;73.43
37648;BME280;23490;53.656;10.076;2023-04-29T07:51:42;98658.09;;;-145.95;73.18
37648;BME280;23490;53.656;10.076;2023-04-29T07:54:08;98651.91;;;-145.95;71.11
37648;BME280;23490;53.656;10.076;2023-04-29T07:56:36;98629.19;;;-145.95;73.53
37648;BME280;23490;53.656;10.076;2023-04-29T07:59:01;98610.59;;;-145.95;71.09
37648;BME280;23490;53.656;10.076;2023-04-29T08:01:27;98602.34;;;-145.95;71.89
37648;BME280;23490;53.656;10.076;2023-04-29T08:03:55;98579.63;;;-145.95;68.99
37648;BME280;23490;53.656;10.076;2023-04-29T08:06:20;98534.22;;;-145.95;68.03
37648;BME280;23490;53.656;10.076;2023-04-29T08:08:48;98513.56;;;-145.95;67.15
37648;BME280;23490;53.656;10.076;2023-04-29T08:11:15;98505.31;;;-145.95;65.77
37648;BME280;23490;53.656;10.076;2023-04-29T08:13:41;98509.44;;;-145.95;65.34
37648;BME280;23490;53.656;10.076;2023-04-29T08:16:06;98406.19;;;-145.95;62.78
37648;BME280;23490;53.656;10.076;2023-04-29T08:18:33;98451.63;;;-145.95;64.18
37648;BME280;23490;53.656;10.076;2023-04-29T08:21:02;98422.72;;;-145.95;62.50
37648;BME280;23490;53.656;10.076;2023-04-29T08:23:28;98406.19;;;-145.95;61.86
37648;BME280;23490;53.656;10.076;2023-04-29T08:25:54;98447.50;;;-145.95;62.82
37648;BME280;23490;53.656;10.076;2023-04-29T08:28:20;98364.91;;;-145.95;61.79
37648;BME280;23490;53.656;10.076;2023-04-29T08:30:46;98364.91;;;-145.95;62.75
37648;BME280;23490;53.656;10.076;2023-04-29T08:33:12;98397.94;;;-145.95;61.41
37648;BME280;23490;53.656;10.076;2023-04-29T08:35:38;98298.84;;;-145.95;60.24
37648;BME280;23490;53.656;10.076;2023-04-29T08:38:04;98267.88;;;-145.95;63.03
37648;BME280;23490;53.656;10.076;2023-04-29T08:40:33;98179.09;;;-145.95;57.94
37648;BME280;23490;53.656;10.076;2023-04-29T08:42:59;98051.09;;;-145.95;57.89
37648;BME280;23490;53.656;10.076;2023-04-29T08:45:26;97997.44;;;-145.95;52.83
37648;BME280;23490;53.656;10.076;2023-04-29T08:47:53;98009.81;;;-145.95;53.95
37648;BME280;23490;53.656;10.076;2023-04-29T08:50:19;98080.00;;;-145.95;55.46
37648;BME280;23490;53.656;10.076;2023-04-29T08:52:46;98150.19;;;-145.95;56.36
37648;BME280;23490;53.656;10.076;2023-04-29T08:55:11;97980.91;;;-145.95;54.03
37648;BME280;23490;53.656;10.076;2023-04-29T08:57:37;97844.66;;;-145.95;50.52
37648;BME280;23490;53.656;10.076;2023-04-29T09:00:09;98026.34;;;-145.95;53.89
37648;BME280;23490;53.656;10.076;2023-04-29T09:02:42;98104.78;;;-145.95;54.36
37648;BME280;23490;53.656;10.076;2023-04-29T09:05:09;97869.44;;;-145.95;53.47
37648;BME280;23490;53.656;10.076;2023-04-29T09:07:37;97801.31;;;-145.95;51.51
37648;BME280;23490;53.656;10.076;2023-04-29T09:10:05;97646.50;;;-145.95;49.82
37648;BME280;23490;53.656;10.076;2023-04-29T09:12:31;97518.53;;;-145.95;48.98
37648;BME280;23490;53.656;10.076;2023-04-29T09:14:56;97557.75;;;-145.95;48.38
37648;BME280;23490;53.656;10.076;2023-04-29T09:22:53;97675.41;;;-145.95;50.05
37648;BME280;23490;53.656;10.076;2023-04-29T09:25:19;97487.56;;;-145.95;47.75
37648;BME280;23490;53.656;10.076;2023-04-29T09:27:45;97411.19;;;-145.95;47.80
37648;BME280;23490;53.656;10.076;2023-04-29T09:30:11;97706.38;;;-145.95;50.54
37648;BME280;23490;53.656;10.076;2023-04-29T09:32:37;97687.78;;;-145.95;48.52
37648;BME280;23490;53.656;10.076;2023-04-29T09:35:23;97427.72;;;-145.95;46.29
37648;BME280;23490;53.656;10.076;2023-04-29T09:38:08;97623.81;;;-145.95;50.60
37648;BME280;23490;53.656;10.076;2023-04-29T09:40:34;97485.50;;;-145.95;48.55
37648;BME280;23490;53.656;10.076;2023-04-29T09:43:00;97274.97;;;-145.95;43.62
37648;BME280;23490;53.656;10.076;2023-04-29T09:45:38;97444.22;;;-145.95;45.59
37648;BME280;23490;53.656;10.076;2023-04-29T09:48:04;97568.06;;;-145.95;45.94
37648;BME280;23490;53.656;10.076;2023-04-29T09:50:31;97522.66;;;-145.95;47.71
37648;BME280;23490;53.656;10.076;2023-04-29T09:52:57;97345.16;;;-145.95;44.46
37648;BME280;23490;53.656;10.076;2023-04-29T09:55:22;97526.78;;;-145.95;48.15
37648;BME280;23490;53.656;10.076;2023-04-29T09:57:47;97196.56;;;-145.95;43.50
37648;BME280;23490;53.656;10.076;2023-04-29T10:00:13;97060.34;;;-145.95;41.27
37648;BME280;23490;53.656;10.076;2023-04-29T10:02:45;97336.91;;;-145.95;41.17
37648;BME280;23490;53.656;10.076;2023-04-29T10:05:15;97316.25;;;-145.95;43.55
37648;BME280;23490;53.656;10.076;2023-04-29T10:07:41;96820.94;;;-145.95;38.57
37648;BME280;23490;53.656;10.076;2023-04-29T10:10:08;96895.25;;;-145.95;36.44
37648;BME280;23490;53.656;10.076;2023-04-29T10:12:36;97200.69;;;-145.95;40.16
37648;BME280;23490;53.656;10.076;2023-04-29T10:15:37;97423.59;;;-145.95;41.97
37648;BME280;23490;53.656;10.076;2023-04-29T10:20:46;97019.06;;;-145.95;39.28
37648;BME280;23490;53.656;10.076;2023-04-29T10:23:14;96734.28;;;-145.95;36.46
37648;BME280;23490;53.656;10.076;2023-04-29T10:25:43;96732.22;;;-145.95;36.33
37648;BME280;23490;53.656;10.076;2023-04-29T10:28:13;97064.47;;;-145.95;39.55
37648;BME280;23490;53.656;10.076;2023-04-29T10:30:44;96756.97;;;-145.95;36.07
37648;BME280;23490;53.656;10.076;2023-04-29T10:33:15;96874.59;;;-145.95;37.07
37648;BME280;23490;53.656;10.076;2023-04-29T10:35:42;96825.06;;;-145.95;37.27
37648;BME280;23490;53.656;10.076;2023-04-29T10:38:32;97047.94;;;-145.95;39.41
37648;BME280;23490;53.656;10.076;2023-04-29T10:41:02;97237.81;;;-145.95;41.25
37648;BME280;23490;53.656;10.076;2023-04-29T10:43:30;97023.19;;;-145.95;41.60
37648;BME280;23490;53.656;10.076;2023-04-29T10:48:42;96703.31;;;-145.95;36.24
37648;BME280;23490;53.656;10.076;2023-04-29T10:51:07;96736.34;;;-145.95;38.38
37648;BME280;23490;53.656;10.076;2023-04-29T10:53:33;97060.34;;;-145.95;36.25
37648;BME280;23490;53.656;10.076;2023-04-29T10:56:06;97151.16;;;-145.95;38.68
37648;BME280;23490;53.656;10.076;2023-04-29T10:58:42;97506.16;;;-145.95;41.20
37648;BME280;23490;53.656;10.076;2023-04-29T11:01:15;96889.03;;;-145.95;37.20
37648;BME280;23490;53.656;10.076;2023-04-29T11:09:03;97103.69;;;-145.95;41.40
37648;BME280;23490;53.656;10.076;2023-04-29T11:11:56;98046.97;;;-145.95;46.49
37648;BME280;23490;53.656;10.076;2023-04-29T11:14:34;97848.81;;;-145.95;45.71
37648;BME280;23490;53.656;10.076;2023-04-29T11:17:03;97801.31;;;-145.95;44.33
37648;BME280;23490;53.656;10.076;2023-04-29T11:19:33;97293.56;;;-145.95;41.90
37648;BME280;23490;53.656;10.076;2023-04-29T11:22:07;97002.56;;;-145.95;41.41
37648;BME280;23490;53.656;10.076;2023-04-29T11:24:35;96759.03;;;-145.95;38.59
37648;BME280;23490;53.656;10.076;2023-04-29T11:27:01;96895.25;;;-145.95;38.43
37648;BME280;23490;53.656;10.076;2023-04-29T11:29:31;97336.91;;;-145.95;39.06
37648;BME280;23490;53.656;10.076;2023-04-29T11:31:58;96981.91;;;-145.95;38.04
37648;BME280;23490;53.656;10.076;2023-04-29T11:34:24;97485.50;;;-145.95;40.12
37648;BME280;23490;53.656;10.076;2023-04-29T11:36:50;97151.16;;;-145.95;39.53
37648;BME280;23490;53.656;10.076;2023-04-29T11:39:18;96787.94;;;-145.95;37.71
37648;BME280;23490;53.656;10.076;2023-04-29T11:41:44;96810.63;;;-145.95;37.07
37648;BME280;23490;53.656;10.076;2023-04-29T11:44:10;96808.56;;;-145.95;37.26
37648;BME280;23490;53.656;10.076;2023-04-29T11:46:35;96769.34;;;-145.95;36.99
37648;BME280;23490;53.656;10.076;2023-04-29T11:49:01;96548.56;;;-145.95;36.96
37648;BME280;23490;53.656;10.076;2023-04-29T11:51:26;96369.03;;;-145.95;35.19
37648;BME280;23490;53.656;10.076;2023-04-29T11:53:52;96529.97;;;-145.95;36.44
37648;BME280;23490;53.656;10.076;2023-04-29T11:56:21;96399.97;;;-145.95;35.65
37648;BME280;23490;53.656;10.076;2023-04-29T11:58:54;96387.59;;;-145.95;33.57
37648;BME280;23490;53.656;10.076;2023-04-29T12:01:22;96412.34;;;-145.95;34.70
37648;BME280;23490;53.656;10.076;2023-04-29T12:03:48;96284.44;;;-145.95;34.62
37648;BME280;23490;53.656;10.076;2023-04-29T12:06:14;96818.88;;;-145.95;34.47
37648;BME280;23490;53.656;10.076;2023-04-29T12:08:40;97085.09;;;-145.95;36.86
37648;BME280;23490;53.656;10.076;2023-04-29T12:11:06;96965.41;;;-145.95;37.02
37648;BME280;23490;53.656;10.076;2023-04-29T12:13:32;97136.69;;;-145.95;38.14
37648;BME280;23490;53.656;10.076;2023-04-29T12:15:59;96693.00;;;-145.95;37.18
37648;BME280;23490;53.656;10.076;2023-04-29T12:18:25;96717.75;;;-145.95;35.98
37648;BME280;23490;53.656;10.076;2023-04-29T12:20:52;97023.19;;;-145.95;36.68
37648;BME280;23490;53.656;10.076;2023-04-29T12:23:22;97291.50;;;-145.95;39.09
37648;BME280;23490;53.656;10.076;2023-04-29T12:25:49;97361.66;;;-145.95;39.42
37648;BME280;23490;53.656;10.076;2023-04-29T12:28:16;97365.78;;;-145.95;38.69
37648;BME280;23490;53.656;10.076;2023-04-29T12:30:46;97423.59;;;-145.95;39.22
37648;BME280;23490;53.656;10.076;2023-04-29T12:33:23;97502.03;;;-145.95;39.48
37648;BME280;23490;53.656;10.076;2023-04-29T12:35:50;97650.63;;;-145.95;41.61
37648;BME280;23490;53.656;10.076;2023-04-29T12:38:26;97415.34;;;-145.95;40.03
37648;BME280;23490;53.656;10.076;2023-04-29T12:40:53;96515.53;;;-145.95;37.27
37648;BME280;23490;53.656;10.076;2023-04-29T12:43:28;96424.75;;;-145.95;37.06
37648;BME280;23490;53.656;10.076;2023-04-29T12:46:07;97258.47;;;-145.95;36.83
37648;BME280;23490;53.656;10.076;2023-04-29T12:48:35;96800.31;;;-145.95;38.82
37648;BME280;23490;53.656;10.076;2023-04-29T12:51:03;96969.53;;;-145.95;36.58